Terminal Aerodrome Forecast
Issued by NWS

Home | Current Version | Previous Version | Text Only | Print | Product List | Glossary On
Versions: 1 2 3 4 5 6 7 8 9 10 11 12 13 14 15 16 17 18 19 20 21 22 23 24 25 26 27 28 29 30 31 32
000
FTUS43 KDLH 310900 AAB
TAFHIB
TAF AMD
KHIB 310917Z 3109/0106 00000KT 2SM BR SKC
      TEMPO 3109/3112 1/2SM FG VV003
     FM311400 34007KT P6SM SCT050=

USA.gov is the U.S. government's official web portal to all federal, state and local government web resources and services.